createdAt,value
2023-03-20T00:01:38.937Z,48.03
2023-03-20T00:04:06.449Z,50.63
2023-03-20T00:06:33.745Z,48.43
2023-03-20T00:09:07.342Z,43.77
2023-03-20T00:11:40.233Z,47.80
2023-03-20T00:14:13.978Z,48.10
2023-03-20T00:16:44.131Z,55.60
2023-03-20T00:19:17.987Z,48.23
2023-03-20T00:21:48.077Z,51.03
2023-03-20T00:24:16.906Z,48.63
2023-03-20T00:26:45.804Z,55.03
2023-03-20T00:29:24.423Z,45.03
2023-03-20T00:31:52.881Z,40.83
2023-03-20T00:34:23.912Z,45.03
2023-03-20T00:36:52.145Z,40.67
2023-03-20T00:39:19.962Z,37.73
2023-03-20T00:41:51.837Z,37.87
2023-03-20T00:44:35.798Z,33.87
2023-03-20T00:47:17.614Z,32.57
2023-03-20T00:49:47.169Z,28.90
2023-03-20T00:52:21.103Z,29.10
2023-03-20T00:54:48.708Z,28.30
2023-03-20T00:58:01.265Z,25.50
2023-03-20T01:00:45.715Z,26.67
2023-03-20T01:03:18.050Z,27.30
2023-03-20T01:05:47.040Z,25.33
2023-03-20T01:08:16.606Z,23.37
2023-03-20T01:10:45.864Z,21.83
2023-03-20T01:13:22.833Z,24.27
2023-03-20T01:15:52.864Z,24.00
2023-03-20T01:18:23.134Z,26.10
2023-03-20T01:20:51.158Z,27.17
2023-03-20T01:23:20.157Z,25.00
2023-03-20T01:25:47.570Z,27.73
2023-03-20T01:28:23.982Z,20.83
2023-03-20T01:30:51.425Z,24.67
2023-03-20T01:36:07.652Z,21.47
2023-03-20T01:38:35.086Z,22.50
2023-03-20T01:41:11.636Z,23.07
2023-03-20T01:43:39.037Z,23.17
2023-03-20T01:46:12.605Z,21.40
2023-03-20T01:48:58.796Z,21.90
2023-03-20T01:51:28.291Z,24.13
2023-03-20T01:54:02.533Z,23.63
2023-03-20T01:56:33.809Z,26.00
2023-03-20T01:59:05.945Z,24.77
2023-03-20T02:01:36.099Z,21.93
2023-03-20T02:04:04.685Z,23.97
2023-03-20T02:06:32.390Z,23.77
2023-03-20T02:08:59.874Z,22.43
2023-03-20T02:11:27.394Z,21.40
2023-03-20T02:13:58.628Z,23.27
2023-03-20T02:16:26.485Z,24.30
2023-03-20T02:18:56.745Z,26.90
2023-03-20T02:22:01.097Z,24.00
2023-03-20T02:24:45.654Z,26.67
2023-03-20T02:27:43.472Z,27.43
2023-03-20T02:30:33.453Z,25.00
2023-03-20T02:33:28.434Z,24.23
2023-03-20T02:36:19.892Z,25.07
2023-03-20T02:38:54.896Z,23.50
2023-03-20T02:41:36.626Z,24.57
2023-03-20T02:44:08.291Z,22.70
2023-03-20T02:46:51.156Z,28.80
2023-03-20T02:49:21.179Z,23.57
2023-03-20T02:52:01.747Z,23.80
2023-03-20T02:55:07.522Z,24.47
2023-03-20T02:57:43.865Z,25.77
2023-03-20T03:00:36.951Z,24.73
2023-03-20T03:03:08.895Z,25.93
2023-03-20T03:06:00.912Z,25.93
2023-03-20T03:08:34.222Z,25.77
2023-03-20T03:11:06.649Z,27.20
2023-03-20T03:13:56.186Z,26.13
2023-03-20T03:16:31.338Z,25.73
2023-03-20T03:19:12.492Z,29.40
2023-03-20T03:21:41.915Z,28.80
2023-03-20T03:24:41.833Z,23.50
2023-03-20T03:27:29.153Z,26.87
2023-03-20T03:30:08.263Z,26.73
2023-03-20T03:32:42.072Z,29.70
2023-03-20T03:35:17.322Z,27.90
2023-03-20T03:37:58.270Z,28.27
2023-03-20T03:40:38.787Z,32.17
2023-03-20T03:43:34.147Z,28.80
2023-03-20T03:46:25.821Z,29.07
2023-03-20T03:48:56.830Z,32.80
2023-03-20T03:51:28.719Z,31.43
2023-03-20T03:54:21.120Z,32.47
2023-03-20T03:56:50.847Z,30.40
2023-03-20T03:59:34.269Z,28.10
2023-03-20T04:02:04.911Z,31.33
2023-03-20T04:04:34.632Z,29.50
2023-03-20T04:07:02.238Z,33.97
2023-03-20T04:09:29.857Z,33.30
2023-03-20T04:11:57.313Z,34.27
2023-03-20T04:14:24.803Z,30.17
2023-03-20T04:16:52.724Z,34.17
2023-03-20T04:19:20.357Z,32.90
2023-03-20T04:21:48.774Z,37.17
2023-03-20T04:24:16.100Z,31.07
2023-03-20T04:26:43.545Z,33.33
2023-03-20T04:29:11.694Z,31.47
2023-03-20T04:31:39.003Z,33.03
2023-03-20T04:34:06.679Z,30.87
2023-03-20T04:36:34.750Z,31.77
2023-03-20T04:39:02.040Z,29.23
2023-03-20T04:41:29.751Z,29.93
2023-03-20T04:43:57.298Z,32.97
2023-03-20T04:46:25.038Z,32.53
2023-03-20T04:48:52.428Z,32.33
2023-03-20T04:51:19.863Z,31.43
2023-03-20T04:53:48.142Z,33.60
2023-03-20T04:56:15.625Z,32.80
2023-03-20T04:58:43.055Z,32.13
2023-03-20T05:01:11.447Z,32.40
2023-03-20T05:03:39.999Z,32.43
2023-03-20T05:06:07.778Z,35.77
2023-03-20T05:08:35.427Z,36.80
2023-03-20T05:11:04.598Z,29.90
2023-03-20T05:13:31.872Z,32.10
2023-03-20T05:15:59.424Z,31.63
2023-03-20T05:18:26.705Z,32.87
2023-03-20T05:20:54.151Z,34.30
2023-03-20T05:23:21.662Z,36.63
2023-03-20T05:25:49.063Z,36.10
2023-03-20T05:28:16.530Z,35.13
2023-03-20T05:30:43.811Z,36.23
2023-03-20T05:33:11.415Z,37.63
2023-03-20T05:35:39.708Z,35.80
2023-03-20T05:38:07.377Z,39.67
2023-03-20T05:40:34.771Z,36.83
2023-03-20T05:43:02.098Z,37.83
2023-03-20T05:45:29.876Z,40.03
2023-03-20T05:47:57.584Z,37.53
2023-03-20T05:50:26.049Z,43.20
2023-03-20T05:52:53.352Z,35.53
2023-03-20T05:55:20.675Z,38.27
2023-03-20T05:57:48.057Z,42.70
2023-03-20T06:00:15.937Z,46.47
2023-03-20T06:02:44.923Z,42.87
2023-03-20T06:05:14.442Z,45.60
2023-03-20T06:07:41.911Z,38.63
2023-03-20T06:10:10.011Z,41.20
2023-03-20T06:12:39.553Z,40.67
2023-03-20T06:15:07.524Z,41.00
2023-03-20T06:17:35.112Z,38.33
2023-03-20T06:20:02.502Z,40.40
2023-03-20T06:22:29.969Z,38.40
2023-03-20T06:24:57.756Z,40.90
2023-03-20T06:27:25.085Z,42.67
2023-03-20T06:29:52.428Z,48.37
2023-03-20T06:32:19.765Z,40.00
2023-03-20T06:34:47.184Z,43.70
2023-03-20T06:37:15.015Z,46.03
2023-03-20T06:39:42.473Z,41.53
2023-03-20T06:42:09.941Z,53.57
2023-03-20T06:44:37.768Z,56.37
2023-03-20T06:47:05.881Z,52.30
2023-03-20T06:49:33.131Z,50.93
2023-03-20T06:52:00.499Z,52.23
2023-03-20T06:54:27.933Z,43.17
2023-03-20T06:56:55.727Z,48.03
2023-03-20T06:59:24.037Z,43.80
2023-03-20T07:01:51.427Z,43.43
2023-03-20T07:04:18.859Z,48.13
2023-03-20T07:06:46.157Z,52.97
2023-03-20T07:09:13.723Z,55.27
2023-03-20T07:11:41.906Z,55.53
2023-03-20T07:14:09.276Z,52.47
2023-03-20T07:16:36.645Z,48.27
2023-03-20T07:19:04.172Z,42.93
2023-03-20T07:21:32.951Z,41.47
2023-03-20T07:24:00.572Z,42.53
2023-03-20T07:26:28.163Z,42.40
2023-03-20T07:28:55.827Z,37.87
2023-03-20T07:31:26.931Z,37.90
2023-03-20T07:33:57.859Z,35.10
2023-03-20T07:36:25.692Z,35.97
2023-03-20T07:38:53.485Z,35.60
2023-03-20T07:41:21.173Z,35.90
2023-03-20T07:43:48.491Z,36.27
2023-03-20T07:46:15.903Z,37.23
2023-03-20T07:48:43.311Z,35.40
2023-03-20T07:51:13.528Z,37.00
2023-03-20T07:53:41.588Z,36.17
2023-03-20T07:56:09.752Z,42.93
2023-03-20T07:58:37.455Z,37.53
2023-03-20T08:01:05.004Z,38.53
2023-03-20T08:03:33.016Z,39.83
2023-03-20T08:06:00.751Z,34.13
2023-03-20T08:08:28.143Z,36.10
2023-03-20T08:10:55.511Z,34.83
2023-03-20T08:13:22.839Z,35.43
2023-03-20T08:15:50.133Z,33.50
2023-03-20T08:18:18.066Z,33.13
2023-03-20T08:20:45.365Z,32.40
2023-03-20T08:23:13.259Z,32.07
2023-03-20T08:25:40.873Z,32.70
2023-03-20T08:28:08.775Z,32.63
2023-03-20T08:30:36.572Z,32.80
2023-03-20T08:33:04.097Z,31.27
2023-03-20T08:35:33.700Z,31.30
2023-03-20T08:38:02.624Z,32.97
2023-03-20T08:40:31.207Z,30.33
2023-03-20T08:42:59.389Z,32.83
2023-03-20T08:45:27.404Z,31.00
2023-03-20T08:47:55.316Z,29.43
2023-03-20T08:50:22.884Z,27.80
2023-03-20T08:52:50.612Z,28.93
2023-03-20T08:55:18.337Z,28.73
2023-03-20T08:57:46.348Z,27.93
2023-03-20T09:00:15.979Z,33.90
2023-03-20T09:02:43.726Z,26.43
2023-03-20T09:05:11.858Z,29.00
2023-03-20T09:07:39.625Z,27.83
2023-03-20T09:10:10.752Z,25.57
2023-03-20T09:12:38.893Z,26.13
2023-03-20T09:15:07.761Z,24.47
2023-03-20T09:17:35.269Z,28.20
2023-03-20T09:20:02.720Z,27.27
2023-03-20T09:22:29.982Z,25.83
2023-03-20T09:24:57.233Z,27.83
2023-03-20T09:27:24.776Z,26.63
2023-03-20T09:29:52.679Z,24.13
2023-03-20T09:32:19.997Z,25.83
2023-03-20T09:34:47.279Z,28.80
2023-03-20T09:37:14.536Z,25.70
2023-03-20T09:39:42.555Z,28.27
2023-03-20T09:42:32.897Z,28.37
2023-03-20T09:45:07.009Z,24.80
2023-03-20T09:48:00.894Z,24.80
2023-03-20T09:50:44.525Z,27.27
2023-03-20T09:53:33.811Z,27.17
2023-03-20T09:56:01.969Z,26.83
2023-03-20T09:58:34.750Z,25.40
2023-03-20T10:01:06.522Z,30.80
2023-03-20T10:03:51.059Z,28.37
2023-03-20T10:06:18.807Z,25.53
2023-03-20T10:08:47.647Z,31.83
2023-03-20T10:11:20.963Z,28.37
2023-03-20T10:14:00.996Z,26.37
2023-03-20T10:16:48.039Z,25.77
2023-03-20T10:19:24.667Z,29.40
2023-03-20T10:22:19.128Z,25.90
2023-03-20T10:24:54.520Z,26.23
2023-03-20T10:27:38.282Z,26.43
2023-03-20T10:30:36.791Z,25.87
2023-03-20T10:33:49.170Z,25.50
2023-03-20T10:36:19.592Z,30.67
2023-03-20T10:38:59.720Z,24.73
2023-03-20T10:41:35.332Z,26.60
2023-03-20T10:44:03.203Z,27.93
2023-03-20T10:46:38.751Z,25.60
2023-03-20T10:49:16.984Z,24.17
2023-03-20T10:51:55.789Z,22.13
2023-03-20T10:54:34.784Z,24.63
2023-03-20T10:57:05.886Z,23.83
2023-03-20T10:59:42.486Z,24.03
2023-03-20T11:02:14.768Z,25.70
2023-03-20T11:04:42.576Z,26.33
2023-03-20T11:07:26.878Z,23.70
2023-03-20T11:10:06.768Z,25.47
2023-03-20T11:12:43.104Z,24.13
2023-03-20T11:15:30.222Z,95.03
2023-03-20T11:18:03.050Z,31.27
2023-03-20T11:20:37.927Z,26.40
2023-03-20T11:23:08.547Z,27.37
2023-03-20T11:25:47.299Z,24.27
2023-03-20T11:28:35.243Z,29.07
2023-03-20T11:31:11.415Z,34.40
2023-03-20T11:33:42.558Z,24.57
2023-03-20T11:36:26.614Z,25.80
2023-03-20T11:39:13.300Z,24.60
2023-03-20T11:41:48.424Z,26.83
2023-03-20T11:44:33.184Z,27.47
2023-03-20T11:47:06.357Z,25.70
2023-03-20T11:49:46.012Z,25.47
2023-03-20T11:52:17.367Z,24.87
2023-03-20T11:54:56.430Z,23.17
2023-03-20T11:57:37.885Z,24.53
2023-03-20T12:00:23.288Z,20.53
2023-03-20T12:02:51.245Z,23.53
2023-03-20T12:05:34.006Z,23.63
2023-03-20T12:08:16.288Z,24.77
2023-03-20T12:10:49.909Z,20.70
2023-03-20T12:13:19.459Z,18.03
2023-03-20T12:15:57.992Z,21.73
2023-03-20T12:19:21.377Z,17.20
2023-03-20T12:22:28.748Z,20.50
2023-03-20T12:25:07.501Z,15.17
2023-03-20T12:27:39.107Z,16.53
2023-03-20T12:30:11.932Z,17.13
2023-03-20T12:33:11.713Z,16.07
2023-03-20T12:35:45.038Z,11.80
2023-03-20T12:38:21.828Z,14.07
2023-03-20T12:40:55.351Z,12.68
2023-03-20T12:43:41.944Z,12.43
2023-03-20T12:46:26.769Z,10.82
2023-03-20T12:48:56.872Z,12.68
2023-03-20T12:51:50.758Z,8.57
2023-03-20T12:54:24.047Z,8.02
2023-03-20T12:56:57.728Z,11.02
2023-03-20T12:59:29.864Z,10.93
2023-03-20T13:02:28.958Z,7.90
2023-03-20T13:05:16.756Z,10.98
2023-03-20T13:07:56.871Z,12.75
2023-03-20T13:10:48.621Z,13.40
2023-03-20T13:13:32.656Z,12.52
2023-03-20T13:16:22.760Z,13.60
2023-03-20T13:19:14.257Z,14.82
2023-03-20T13:21:54.753Z,15.40
2023-03-20T13:24:40.799Z,14.05
2023-03-20T13:27:47.606Z,14.27
2023-03-20T13:30:21.031Z,14.45
2023-03-20T13:33:09.504Z,13.93
2023-03-20T13:36:18.790Z,14.20
2023-03-20T13:38:53.403Z,16.25
2023-03-20T13:41:24.677Z,15.15
2023-03-20T13:43:57.630Z,15.52
2023-03-20T13:47:08.780Z,16.77
2023-03-20T13:49:38.032Z,15.07
2023-03-20T13:52:31.805Z,16.17
2023-03-20T13:55:26.833Z,14.85
2023-03-20T13:58:07.905Z,15.88
2023-03-20T14:00:51.915Z,15.30
2023-03-20T14:03:26.392Z,15.45
2023-03-20T14:05:53.728Z,18.08
2023-03-20T14:08:32.719Z,16.10
2023-03-20T14:11:21.407Z,15.48
2023-03-20T14:13:54.307Z,15.45
2023-03-20T14:16:22.095Z,16.25
2023-03-20T14:18:51.971Z,15.95
2023-03-20T14:21:23.974Z,15.75
2023-03-20T14:24:03.231Z,15.73
2023-03-20T14:26:39.169Z,16.03
2023-03-20T14:29:12.588Z,17.13
2023-03-20T14:31:42.512Z,16.37
2023-03-20T14:34:12.613Z,17.63
2023-03-20T14:36:58.056Z,18.63
2023-03-20T14:39:58.158Z,16.10
2023-03-20T14:42:34.281Z,15.13
2023-03-20T14:45:08.227Z,16.43
2023-03-20T14:48:07.340Z,12.67
2023-03-20T14:50:47.520Z,13.23
2023-03-20T14:53:21.331Z,14.30
2023-03-20T14:55:56.859Z,15.73
2023-03-20T14:58:53.836Z,12.47
2023-03-20T15:01:21.182Z,12.60
2023-03-20T15:04:02.258Z,11.87
2023-03-20T15:06:30.546Z,13.43
2023-03-20T15:09:04.545Z,20.20
2023-03-20T15:11:35.664Z,13.40
2023-03-20T15:14:07.071Z,12.00
2023-03-20T15:16:36.762Z,12.87
2023-03-20T15:19:27.427Z,15.60
2023-03-20T15:21:56.768Z,16.40
2023-03-20T15:24:29.549Z,16.33
2023-03-20T15:27:02.070Z,14.80
2023-03-20T15:29:32.779Z,16.17
2023-03-20T15:32:13.928Z,23.47
2023-03-20T15:34:44.423Z,27.23
2023-03-20T15:37:21.081Z,29.10
2023-03-20T15:39:52.064Z,12.37
2023-03-20T15:42:25.130Z,27.90
2023-03-20T15:44:55.325Z,53.33
2023-03-20T15:47:25.430Z,56.90
2023-03-20T15:49:58.313Z,101.87
2023-03-20T15:52:31.378Z,16.53
2023-03-20T15:55:01.729Z,8.07
2023-03-20T15:57:39.388Z,45.17
2023-03-20T16:00:24.507Z,7.00
2023-03-20T16:02:52.437Z,9.63
2023-03-20T16:05:25.779Z,14.67
2023-03-20T16:07:54.148Z,13.20
2023-03-20T16:10:36.729Z,6.37
2023-03-20T16:13:12.209Z,13.73
2023-03-20T16:15:42.329Z,6.03
2023-03-20T16:18:15.848Z,6.83
2023-03-20T16:20:52.874Z,8.00
2023-03-20T16:23:48.339Z,9.63
2023-03-20T16:26:22.096Z,10.53
2023-03-20T16:28:58.875Z,8.67
2023-03-20T16:31:27.610Z,14.37
2023-03-20T16:33:59.819Z,22.27
2023-03-20T16:36:33.118Z,17.80
2023-03-20T16:39:16.042Z,8.10
2023-03-20T16:41:45.152Z,7.83
2023-03-20T16:44:19.171Z,7.87
2023-03-20T16:47:07.354Z,8.93
2023-03-20T16:49:56.370Z,9.60
2023-03-20T16:52:38.390Z,9.67
2023-03-20T16:55:16.869Z,9.40
2023-03-20T16:57:48.266Z,9.20
2023-03-20T17:00:28.689Z,9.00
2023-03-20T17:03:22.040Z,9.77
2023-03-20T17:06:00.157Z,12.47
2023-03-20T17:08:36.810Z,27.17
2023-03-20T17:11:11.997Z,16.00
2023-03-20T17:13:39.896Z,8.97
2023-03-20T17:16:08.428Z,7.77
2023-03-20T17:18:38.032Z,8.80
2023-03-20T17:21:05.955Z,8.33
2023-03-20T17:23:33.941Z,8.33
2023-03-20T17:26:01.940Z,8.93
2023-03-20T17:28:35.105Z,8.83
2023-03-20T17:31:05.562Z,8.27
2023-03-20T17:33:34.248Z,9.57
2023-03-20T17:36:02.056Z,10.17
2023-03-20T17:38:29.521Z,10.47
2023-03-20T17:40:57.041Z,9.57
2023-03-20T17:43:24.453Z,9.70
2023-03-20T17:45:51.960Z,9.37
2023-03-20T17:48:21.840Z,9.33
2023-03-20T17:50:50.962Z,9.33
2023-03-20T17:53:32.120Z,9.17
2023-03-20T17:55:59.463Z,10.13
2023-03-20T17:58:26.962Z,10.03
2023-03-20T18:00:56.774Z,11.10
2023-03-20T18:03:24.309Z,11.53
2023-03-20T18:05:52.187Z,12.23
2023-03-20T18:08:22.274Z,16.17
2023-03-20T18:10:52.492Z,12.93
2023-03-20T18:13:21.709Z,13.20
2023-03-20T18:15:54.275Z,13.43
2023-03-20T18:18:24.115Z,14.20
2023-03-20T18:20:53.704Z,14.57
2023-03-20T18:23:21.887Z,14.13
2023-03-20T18:25:49.368Z,15.83
2023-03-20T18:28:23.536Z,19.13
2023-03-20T18:30:51.966Z,14.80
2023-03-20T18:33:19.733Z,16.97
2023-03-20T18:35:48.145Z,34.30
2023-03-20T18:38:15.562Z,68.10
2023-03-20T18:40:44.024Z,49.97
2023-03-20T18:43:11.806Z,81.07
2023-03-20T18:45:40.171Z,62.87
2023-03-20T18:48:11.216Z,55.63
2023-03-20T18:50:43.669Z,70.83
2023-03-20T18:53:11.401Z,96.03
2023-03-20T18:55:38.744Z,138.03
2023-03-20T18:58:07.189Z,90.03
2023-03-20T19:00:42.053Z,57.30
2023-03-20T19:03:12.196Z,96.13
2023-03-20T19:05:40.228Z,52.23
2023-03-20T19:08:07.722Z,68.50
2023-03-20T19:10:41.032Z,41.50
2023-03-20T19:13:09.985Z,31.57
2023-03-20T19:15:38.987Z,30.80
2023-03-20T19:18:28.322Z,28.00
2023-03-20T19:20:58.304Z,26.10
2023-03-20T19:23:29.643Z,32.33
2023-03-20T19:25:56.974Z,29.97
2023-03-20T19:28:39.115Z,49.37
2023-03-20T19:31:10.477Z,36.47
2023-03-20T19:33:39.352Z,24.10
2023-03-20T19:36:08.368Z,23.93
2023-03-20T19:38:37.727Z,33.13
2023-03-20T19:41:06.306Z,27.53
2023-03-20T19:43:42.610Z,26.87
2023-03-20T19:46:36.231Z,31.90
2023-03-20T19:49:06.825Z,35.87
2023-03-20T19:51:34.934Z,35.43
2023-03-20T19:54:02.309Z,48.40
2023-03-20T19:56:30.258Z,57.37
2023-03-20T19:58:57.933Z,49.27
2023-03-20T20:01:25.664Z,52.83
2023-03-20T20:03:59.505Z,61.13
2023-03-20T20:06:32.244Z,64.40
2023-03-20T20:09:01.892Z,60.40
2023-03-20T20:11:30.408Z,46.33
2023-03-20T20:14:08.121Z,43.53
2023-03-20T20:16:37.959Z,43.23
2023-03-20T20:19:05.969Z,39.47
2023-03-20T20:24:21.795Z,43.00
2023-03-20T20:27:06.977Z,41.43
2023-03-20T20:29:42.601Z,39.20
2023-03-20T20:32:10.086Z,42.10
2023-03-20T20:35:30.207Z,43.10
2023-03-20T20:40:18.237Z,50.17
2023-03-20T20:42:48.539Z,43.70
2023-03-20T20:45:16.318Z,49.60
2023-03-20T20:47:45.743Z,47.80
2023-03-20T20:50:15.988Z,90.07
2023-03-20T20:52:44.387Z,57.57
2023-03-20T20:55:22.461Z,81.37
2023-03-20T20:57:52.047Z,70.10
2023-03-20T21:00:21.596Z,69.03
2023-03-20T21:02:49.117Z,75.13
2023-03-20T21:05:19.587Z,83.47
2023-03-20T21:07:49.267Z,60.40
2023-03-20T21:10:19.405Z,63.00
2023-03-20T21:12:58.611Z,71.00
2023-03-20T21:15:30.236Z,68.60
2023-03-20T21:18:01.344Z,62.80
2023-03-20T21:20:33.886Z,50.73
2023-03-20T21:23:01.489Z,47.43
2023-03-20T21:25:40.021Z,40.13
2023-03-20T21:28:10.572Z,42.10
2023-03-20T21:30:46.832Z,40.57
2023-03-20T21:33:24.654Z,41.60
2023-03-20T21:35:53.084Z,37.37
2023-03-20T21:41:11.017Z,35.30
2023-03-20T21:43:39.336Z,31.13
2023-03-20T21:46:42.274Z,32.37
2023-03-20T21:57:55.621Z,30.73
2023-03-20T22:01:04.211Z,30.57
2023-03-20T22:03:04.273Z,31.53
2023-03-20T22:06:22.056Z,34.43
2023-03-20T22:20:32.737Z,31.50
2023-03-20T22:25:53.032Z,31.37
2023-03-20T22:28:49.637Z,30.43
2023-03-20T22:39:50.924Z,31.00
2023-03-20T22:42:38.172Z,35.17
2023-03-20T22:44:59.903Z,34.10
2023-03-20T22:47:29.475Z,29.40
2023-03-20T22:49:56.973Z,30.40
2023-03-20T22:52:37.939Z,34.67
2023-03-20T22:55:11.854Z,32.97
2023-03-20T22:57:47.572Z,42.37
2023-03-20T23:00:22.020Z,41.73
2023-03-20T23:02:53.002Z,47.70
2023-03-20T23:05:22.372Z,38.17
2023-03-20T23:07:49.643Z,46.63
2023-03-20T23:10:16.968Z,50.73
2023-03-20T23:12:44.512Z,50.83
2023-03-20T23:15:12.016Z,46.80
2023-03-20T23:17:39.504Z,73.13
2023-03-20T23:20:12.252Z,54.50
2023-03-20T23:22:41.395Z,65.10
2023-03-20T23:25:18.485Z,61.13
2023-03-20T23:27:48.682Z,53.63
2023-03-20T23:30:16.401Z,54.33
2023-03-20T23:32:43.937Z,45.87
2023-03-20T23:35:11.488Z,52.07
2023-03-20T23:37:38.862Z,46.13
2023-03-20T23:40:07.232Z,70.70
2023-03-20T23:42:34.770Z,86.03
2023-03-20T23:45:17.162Z,111.00
2023-03-20T23:47:48.490Z,76.90
2023-03-20T23:50:28.493Z,53.17
2023-03-20T23:53:13.068Z,46.33
2023-03-20T23:55:46.130Z,50.93
2023-03-20T23:58:14.388Z,53.50
